Time;durP1;ratioP1;P1;durP2;ratioP2;P2;SDS_P1;SDS_P2;PMS_P1;PMS_P2;Temp;Humidity;BMP_temperature;BMP_pressure;BME280_temperature;BME280_humidity;BME280_pressure;Samples;Min_cycle;Max_cycle;Signal;HPM_P1;HPM_P2
2021/11/30 00:01:56;;;;;;;8.05;4.18;;;;;;;;;;4974319;28;20443;-65
2021/11/30 00:04:23;;;;;;;10.32;4.28;;;;;;;;;;4963427;28;20448;-67
2021/11/30 00:06:49;;;;;;;11.07;4.05;;;;;;;;;;4957795;28;20029;-66
2021/11/30 00:12:05;;;;;;;8.38;4.53;;;;;;;;;;4972455;28;20029;-66
2021/11/30 00:14:30;;;;;;;12.13;4.63;;;;;;;;;;4972816;28;20341;-66
2021/11/30 00:16:57;;;;;;;11.98;4.45;;;;;;;;;;4954471;28;20029;-66
2021/11/30 00:19:24;;;;;;;8.02;3.40;;;;;;;;;;4972490;28;20029;-66
2021/11/30 00:21:49;;;;;;;12.52;4.03;;;;;;;;;;4972856;28;20345;-66
2021/11/30 00:24:14;;;;;;;9.77;3.83;;;;;;;;;;4972598;28;20392;-66
2021/11/30 00:26:40;;;;;;;10.68;4.20;;;;;;;;;;4972747;28;20091;-65
2021/11/30 00:29:05;;;;;;;7.55;3.30;;;;;;;;;;4973281;28;20337;-67
2021/11/30 00:31:30;;;;;;;9.15;4.55;;;;;;;;;;4973565;28;20025;-66
2021/11/30 00:33:56;;;;;;;9.05;4.22;;;;;;;;;;4971813;28;20399;-66
2021/11/30 00:36:21;;;;;;;8.88;3.42;;;;;;;;;;4972282;28;20314;-65
2021/11/30 00:38:47;;;;;;;8.73;3.70;;;;;;;;;;4972417;28;20026;-65
2021/11/30 00:41:12;;;;;;;9.35;3.90;;;;;;;;;;4973343;28;20041;-67
2021/11/30 00:43:38;;;;;;;8.90;3.45;;;;;;;;;;4971878;28;20348;-66
2021/11/30 00:46:20;;;;;;;9.07;3.80;;;;;;;;;;4972240;28;20431;-65
2021/11/30 00:48:45;;;;;;;9.30;3.42;;;;;;;;;;4980127;28;20309;-66
2021/11/30 00:51:16;;;;;;;8.00;3.88;;;;;;;;;;4992299;28;20327;-67
2021/11/30 00:53:44;;;;;;;7.35;3.28;;;;;;;;;;4991723;28;20466;-66
2021/11/30 00:56:10;;;;;;;9.02;2.97;;;;;;;;;;4991730;28;20378;-66
2021/11/30 00:58:36;;;;;;;7.63;3.30;;;;;;;;;;4974455;28;20382;-65
2021/11/30 01:01:03;;;;;;;8.00;3.47;;;;;;;;;;4992090;28;20321;-66
2021/11/30 01:03:28;;;;;;;10.73;3.67;;;;;;;;;;4991650;28;20355;-66
2021/11/30 01:05:53;;;;;;;10.00;3.88;;;;;;;;;;4991843;28;20352;-66
2021/11/30 01:08:19;;;;;;;8.20;3.42;;;;;;;;;;4991402;28;20475;-66
2021/11/30 01:10:44;;;;;;;6.40;4.13;;;;;;;;;;4992051;28;20451;-66
2021/11/30 01:13:10;;;;;;;9.55;3.70;;;;;;;;;;4990958;28;20321;-66
2021/11/30 01:15:37;;;;;;;6.57;3.35;;;;;;;;;;4991306;28;20459;-66
2021/11/30 01:18:03;;;;;;;5.85;3.33;;;;;;;;;;4991296;28;20059;-66
2021/11/30 01:20:28;;;;;;;7.18;3.38;;;;;;;;;;4973348;28;20033;-66
2021/11/30 01:22:54;;;;;;;6.53;2.70;;;;;;;;;;4973286;28;20513;-66
2021/11/30 01:25:20;;;;;;;8.90;2.58;;;;;;;;;;4991845;28;20480;-66
2021/11/30 01:27:47;;;;;;;10.32;4.18;;;;;;;;;;4991017;28;20472;-66
2021/11/30 01:30:14;;;;;;;11.15;2.90;;;;;;;;;;4991266;28;20111;-66
2021/11/30 01:32:41;;;;;;;5.93;3.10;;;;;;;;;;4992041;28;20025;-66
2021/11/30 01:35:07;;;;;;;6.97;3.17;;;;;;;;;;4990873;28;20411;-65
2021/11/30 01:37:33;;;;;;;9.18;2.95;;;;;;;;;;4990685;28;20418;-66
2021/11/30 01:39:59;;;;;;;8.02;3.25;;;;;;;;;;4990899;28;20400;-66
2021/11/30 01:42:25;;;;;;;6.32;3.08;;;;;;;;;;4991095;28;20127;-66
2021/11/30 01:44:52;;;;;;;7.10;3.28;;;;;;;;;;4972807;28;20029;-66
2021/11/30 01:49:52;;;;;;;10.15;3.75;;;;;;;;;;4957258;28;20049;-66
2021/11/30 01:52:18;;;;;;;5.60;2.60;;;;;;;;;;4952770;28;20348;-66
2021/11/30 01:54:44;;;;;;;6.95;3.08;;;;;;;;;;4970549;28;20439;-66
2021/11/30 01:57:12;;;;;;;6.30;3.08;;;;;;;;;;4971170;28;20409;-66
2021/11/30 01:59:38;;;;;;;6.93;2.60;;;;;;;;;;4970746;28;20518;-65
2021/11/30 02:02:04;;;;;;;8.77;3.25;;;;;;;;;;4970397;28;20107;-66
2021/11/30 02:04:30;;;;;;;6.60;2.72;;;;;;;;;;4971447;28;20416;-66
2021/11/30 02:06:56;;;;;;;5.95;3.00;;;;;;;;;;4970950;28;20453;-66
2021/11/30 02:09:21;;;;;;;8.52;3.00;;;;;;;;;;4970906;28;20503;-66
2021/11/30 02:11:47;;;;;;;7.28;2.88;;;;;;;;;;4970292;28;20379;-65
2021/11/30 02:14:13;;;;;;;7.22;2.60;;;;;;;;;;4970647;28;20491;-66
2021/11/30 02:16:38;;;;;;;4.10;2.25;;;;;;;;;;4970151;28;20428;-67
2021/11/30 02:19:04;;;;;;;6.15;2.63;;;;;;;;;;4970107;28;20503;-65
2021/11/30 02:21:34;;;;;;;7.30;3.13;;;;;;;;;;4969759;28;20460;-66
2021/11/30 02:24:00;;;;;;;8.27;2.63;;;;;;;;;;4970202;28;20459;-66
2021/11/30 02:26:30;;;;;;;6.30;2.70;;;;;;;;;;4970510;28;20405;-66
2021/11/30 02:28:57;;;;;;;5.55;2.45;;;;;;;;;;4971094;28;20030;-65
2021/11/30 02:31:24;;;;;;;5.15;2.35;;;;;;;;;;4970732;28;20026;-66
2021/11/30 02:33:50;;;;;;;8.05;3.00;;;;;;;;;;4970149;28;20471;-65
2021/11/30 02:36:31;;;;;;;4.35;2.08;;;;;;;;;;4971493;28;20360;-66
2021/11/30 02:38:58;;;;;;;6.70;2.60;;;;;;;;;;4970451;28;20343;-65
2021/11/30 02:41:25;;;;;;;5.18;2.72;;;;;;;;;;4969794;28;20348;-66
2021/11/30 02:43:51;;;;;;;6.40;2.20;;;;;;;;;;4969619;28;20103;-66
2021/11/30 02:46:29;;;;;;;3.47;2.35;;;;;;;;;;4969862;28;20033;-67
2021/11/30 02:48:54;;;;;;;4.18;2.22;;;;;;;;;;4979402;28;20367;-66
2021/11/30 02:51:20;;;;;;;4.90;2.28;;;;;;;;;;4989811;28;20367;-66
2021/11/30 02:53:45;;;;;;;4.18;2.28;;;;;;;;;;4989656;28;20435;-66
2021/11/30 02:56:10;;;;;;;3.97;2.08;;;;;;;;;;4989246;28;20386;-67
2021/11/30 02:58:36;;;;;;;3.55;2.10;;;;;;;;;;4989664;28;20494;-66
2021/11/30 03:01:04;;;;;;;5.22;2.47;;;;;;;;;;4971287;28;20361;-65
2021/11/30 03:03:29;;;;;;;4.82;2.50;;;;;;;;;;4972589;28;20102;-66
2021/11/30 03:05:56;;;;;;;5.55;2.03;;;;;;;;;;4989167;28;20448;-65
2021/11/30 03:08:22;;;;;;;4.47;2.05;;;;;;;;;;4989635;28;20459;-66
2021/11/30 03:10:47;;;;;;;4.07;2.03;;;;;;;;;;4989344;28;20453;-66
2021/11/30 03:13:12;;;;;;;5.15;2.65;;;;;;;;;;4989697;28;20517;-66
2021/11/30 03:15:38;;;;;;;5.22;2.45;;;;;;;;;;4989159;28;20327;-67
2021/11/30 03:18:03;;;;;;;3.92;2.35;;;;;;;;;;4989127;28;20458;-66
2021/11/30 03:20:29;;;;;;;5.25;2.20;;;;;;;;;;4989247;28;20336;-66
2021/11/30 03:22:54;;;;;;;5.40;2.95;;;;;;;;;;4989170;28;20427;-66
2021/11/30 03:25:20;;;;;;;4.03;2.22;;;;;;;;;;4989505;28;20098;-65
2021/11/30 03:27:47;;;;;;;3.35;1.77;;;;;;;;;;4988552;28;20522;-66
2021/11/30 03:30:13;;;;;;;5.13;2.05;;;;;;;;;;4971366;28;20432;-67
2021/11/30 03:35:23;;;;;;;4.40;1.95;;;;;;;;;;4993543;28;20371;-65
2021/11/30 03:37:49;;;;;;;5.13;2.25;;;;;;;;;;4992986;28;20047;-66
2021/11/30 03:40:14;;;;;;;3.60;2.15;;;;;;;;;;4994091;28;20139;-66
2021/11/30 03:42:39;;;;;;;2.90;2.13;;;;;;;;;;4993233;28;20428;-66
2021/11/30 03:45:07;;;;;;;5.40;2.45;;;;;;;;;;4993709;28;20331;-66
2021/11/30 03:47:32;;;;;;;4.28;1.88;;;;;;;;;;4994303;28;20503;-66
2021/11/30 03:49:58;;;;;;;4.38;2.00;;;;;;;;;;4992483;28;20352;-67
2021/11/30 03:52:23;;;;;;;3.97;1.98;;;;;;;;;;4992802;28;20447;-65
2021/11/30 03:54:49;;;;;;;4.15;2.25;;;;;;;;;;4993779;28;20336;-65
2021/11/30 03:57:14;;;;;;;3.25;1.80;;;;;;;;;;4992563;28;20021;-66
2021/11/30 03:59:39;;;;;;;2.85;1.90;;;;;;;;;;4992734;28;20412;-66
2021/11/30 04:02:05;;;;;;;4.88;2.53;;;;;;;;;;4992586;28;20056;-66
2021/11/30 04:04:34;;;;;;;3.92;2.13;;;;;;;;;;4975114;28;20324;-66
2021/11/30 04:07:00;;;;;;;4.68;2.47;;;;;;;;;;4993587;28;20390;-66
2021/11/30 04:09:26;;;;;;;3.40;1.85;;;;;;;;;;4992466;28;20343;-67
2021/11/30 04:11:52;;;;;;;3.67;1.95;;;;;;;;;;4992818;28;20519;-67
2021/11/30 04:14:18;;;;;;;3.65;2.10;;;;;;;;;;4974757;28;20340;-67
2021/11/30 04:16:44;;;;;;;3.72;2.25;;;;;;;;;;4992617;28;20421;-67
2021/11/30 04:19:09;;;;;;;3.25;2.08;;;;;;;;;;4992579;28;20413;-66
2021/11/30 04:21:35;;;;;;;6.65;1.60;;;;;;;;;;4992374;28;20051;-65
2021/11/30 04:24:01;;;;;;;3.42;2.20;;;;;;;;;;4993087;28;20384;-66
2021/11/30 04:26:27;;;;;;;2.70;1.55;;;;;;;;;;4993203;28;20390;-66
2021/11/30 04:28:52;;;;;;;4.03;1.88;;;;;;;;;;4992061;28;20329;-65
2021/11/30 04:31:18;;;;;;;5.90;1.80;;;;;;;;;;4992708;28;20519;-65
2021/11/30 04:33:43;;;;;;;5.47;1.95;;;;;;;;;;4992411;28;20434;-65
2021/11/30 04:36:09;;;;;;;2.72;1.92;;;;;;;;;;4992006;28;20060;-65
2021/11/30 04:38:35;;;;;;;3.05;1.70;;;;;;;;;;4992069;28;20486;-65
2021/11/30 04:41:01;;;;;;;3.25;1.63;;;;;;;;;;4993568;28;20083;-65
2021/11/30 04:43:34;;;;;;;4.18;2.03;;;;;;;;;;4974428;28;20789;-66
2021/11/30 04:46:03;;;;;;;4.35;1.75;;;;;;;;;;4991275;28;20305;-66
2021/11/30 04:48:29;;;;;;;4.65;2.28;;;;;;;;;;4991798;28;20443;-66
2021/11/30 04:50:57;;;;;;;2.67;1.80;;;;;;;;;;4991832;28;20025;-65
2021/11/30 04:53:25;;;;;;;4.03;1.60;;;;;;;;;;4991540;28;20348;-66
2021/11/30 04:55:51;;;;;;;3.42;2.65;;;;;;;;;;4992067;28;20420;-66
2021/11/30 04:58:18;;;;;;;2.47;1.58;;;;;;;;;;4992248;28;20393;-66
2021/11/30 05:00:44;;;;;;;3.15;1.83;;;;;;;;;;4992533;28;20383;-66
2021/11/30 05:03:09;;;;;;;2.25;1.48;;;;;;;;;;4991403;28;20414;-66
2021/11/30 05:05:35;;;;;;;2.40;1.65;;;;;;;;;;4974186;28;20043;-65
2021/11/30 05:08:01;;;;;;;4.45;1.77;;;;;;;;;;4991099;28;20502;-66
2021/11/30 05:10:26;;;;;;;2.95;1.60;;;;;;;;;;4992008;28;20308;-65
2021/11/30 05:12:52;;;;;;;3.00;1.73;;;;;;;;;;4991122;28;20523;-65
2021/11/30 05:15:17;;;;;;;3.75;1.90;;;;;;;;;;4992024;28;20489;-65
2021/11/30 05:17:42;;;;;;;3.05;1.73;;;;;;;;;;4991240;28;20394;-66
2021/11/30 05:20:10;;;;;;;2.92;1.80;;;;;;;;;;4991519;28;20424;-66
2021/11/30 05:22:35;;;;;;;2.35;1.70;;;;;;;;;;4974468;28;20483;-65
2021/11/30 05:25:01;;;;;;;2.50;1.40;;;;;;;;;;4991385;28;20340;-65
2021/11/30 05:27:27;;;;;;;2.72;1.52;;;;;;;;;;4991220;28;20467;-65
2021/11/30 05:29:53;;;;;;;3.92;1.67;;;;;;;;;;4991117;28;20428;-65
2021/11/30 05:32:19;;;;;;;1.83;1.30;;;;;;;;;;4991429;28;20191;-65
2021/11/30 05:34:45;;;;;;;4.03;1.83;;;;;;;;;;4992067;28;20535;-66
2021/11/30 05:37:12;;;;;;;2.13;1.40;;;;;;;;;;4990629;28;20301;-66
2021/11/30 05:39:40;;;;;;;3.40;1.75;;;;;;;;;;4991254;28;20432;-65
2021/11/30 05:42:07;;;;;;;5.53;1.92;;;;;;;;;;4991023;28;20439;-66
2021/11/30 05:44:32;;;;;;;3.50;2.22;;;;;;;;;;4991373;28;20416;-65
2021/11/30 05:46:58;;;;;;;2.58;1.40;;;;;;;;;;4990439;28;20400;-65
2021/11/30 05:49:24;;;;;;;4.63;1.48;;;;;;;;;;4990457;28;20446;-66
2021/11/30 05:51:49;;;;;;;3.03;1.50;;;;;;;;;;4990858;28;20448;-65
2021/11/30 05:54:14;;;;;;;2.22;1.60;;;;;;;;;;4990569;28;20432;-66
2021/11/30 05:56:40;;;;;;;2.85;1.73;;;;;;;;;;4988131;28;20336;-65
2021/11/30 05:59:06;;;;;;;2.80;1.40;;;;;;;;;;4990641;28;20500;-66
2021/11/30 06:01:33;;;;;;;2.63;1.70;;;;;;;;;;4972286;28;20379;-65
2021/11/30 06:04:00;;;;;;;2.35;1.35;;;;;;;;;;4973306;28;20459;-65
2021/11/30 06:06:30;;;;;;;3.92;2.28;;;;;;;;;;4990903;28;20337;-65
2021/11/30 06:08:57;;;;;;;2.63;1.60;;;;;;;;;;4990915;28;20111;-65
2021/11/30 06:11:23;;;;;;;2.28;1.58;;;;;;;;;;4990199;28;20605;-65
2021/11/30 06:13:49;;;;;;;3.35;1.80;;;;;;;;;;4989963;28;20448;-65
2021/11/30 06:16:14;;;;;;;4.65;1.70;;;;;;;;;;4990437;28;20399;-65
2021/11/30 06:18:39;;;;;;;6.97;1.90;;;;;;;;;;4990083;28;20507;-65
2021/11/30 06:21:05;;;;;;;2.38;1.70;;;;;;;;;;4990414;28;20051;-65
2021/11/30 06:23:31;;;;;;;3.00;1.77;;;;;;;;;;4989692;28;20339;-65
2021/11/30 06:25:56;;;;;;;2.35;1.65;;;;;;;;;;4990826;28;20328;-66
2021/11/30 06:28:22;;;;;;;3.47;1.52;;;;;;;;;;4989839;28;20061;-65
2021/11/30 06:30:47;;;;;;;4.30;1.73;;;;;;;;;;4989820;28;20420;-65
2021/11/30 06:33:12;;;;;;;1.80;1.40;;;;;;;;;;4990144;28;20370;-65
2021/11/30 06:35:38;;;;;;;2.70;1.50;;;;;;;;;;4990047;28;20400;-65
2021/11/30 06:38:04;;;;;;;9.55;3.10;;;;;;;;;;4989878;28;20448;-66
2021/11/30 06:40:30;;;;;;;7.03;2.50;;;;;;;;;;4989664;28;20340;-65
2021/11/30 06:42:55;;;;;;;3.03;1.85;;;;;;;;;;4991458;28;20037;-66
2021/11/30 06:45:20;;;;;;;5.05;2.15;;;;;;;;;;4989595;28;20025;-65
2021/11/30 06:47:46;;;;;;;3.88;2.13;;;;;;;;;;4989199;28;20391;-66
2021/11/30 06:50:12;;;;;;;3.08;1.88;;;;;;;;;;4990398;28;20447;-66
2021/11/30 06:52:38;;;;;;;4.25;2.65;;;;;;;;;;4989323;28;20506;-65
2021/11/30 06:55:08;;;;;;;5.15;2.53;;;;;;;;;;4989022;28;20324;-66
2021/11/30 06:57:35;;;;;;;4.30;2.20;;;;;;;;;;4990263;28;20025;-66
2021/11/30 07:00:04;;;;;;;4.72;2.10;;;;;;;;;;4989301;28;20088;-65
2021/11/30 07:02:30;;;;;;;2.63;2.03;;;;;;;;;;4989784;28;20366;-66
2021/11/30 07:04:58;;;;;;;4.28;2.20;;;;;;;;;;4989260;28;20510;-66
2021/11/30 07:15:05;;;;;;;4.20;2.40;;;;;;;;;;4989100;28;20391;-65
2021/11/30 07:17:34;;;;;;;4.97;2.40;;;;;;;;;;4989435;28;20367;-66
2021/11/30 07:19:59;;;;;;;3.35;2.50;;;;;;;;;;4989367;28;20428;-66
2021/11/30 07:22:25;;;;;;;3.78;2.35;;;;;;;;;;4989456;28;20498;-65
2021/11/30 07:24:50;;;;;;;4.80;3.00;;;;;;;;;;4989272;28;20393;-66
2021/11/30 07:27:15;;;;;;;4.05;2.50;;;;;;;;;;4990670;28;20401;-66
2021/11/30 07:29:41;;;;;;;3.72;2.38;;;;;;;;;;4989267;28;20304;-66
2021/11/30 07:32:07;;;;;;;6.45;3.15;;;;;;;;;;4990064;28;20332;-66
2021/11/30 07:34:33;;;;;;;7.28;3.00;;;;;;;;;;4988981;28;20472;-66
2021/11/30 07:36:59;;;;;;;4.45;2.70;;;;;;;;;;4988981;28;20309;-67
2021/11/30 07:39:24;;;;;;;6.03;3.08;;;;;;;;;;4886143;28;20471;-65
2021/11/30 07:41:49;;;;;;;6.32;2.83;;;;;;;;;;4986411;28;20051;-66
2021/11/30 07:44:15;;;;;;;5.43;3.08;;;;;;;;;;4989015;28;20485;-66
2021/11/30 07:46:40;;;;;;;5.60;2.92;;;;;;;;;;4988708;28;20415;-66
2021/11/30 07:49:05;;;;;;;5.40;3.55;;;;;;;;;;4988781;28;20356;-67
2021/11/30 07:51:32;;;;;;;4.93;2.85;;;;;;;;;;4989177;28;20021;-65
2021/11/30 07:53:57;;;;;;;5.82;3.33;;;;;;;;;;4989049;28;20435;-65
2021/11/30 07:56:23;;;;;;;7.72;3.08;;;;;;;;;;4988715;28;20462;-66
2021/11/30 07:58:48;;;;;;;7.70;3.88;;;;;;;;;;4988754;28;20440;-66
2021/11/30 08:01:15;;;;;;;9.35;4.43;;;;;;;;;;4954284;28;20313;-65
2021/11/30 08:03:41;;;;;;;10.20;3.72;;;;;;;;;;4988355;28;20448;-67
2021/11/30 08:06:06;;;;;;;7.65;3.63;;;;;;;;;;4988757;28;20479;-66
2021/11/30 08:08:32;;;;;;;6.78;3.97;;;;;;;;;;4988654;28;20029;-66
2021/11/30 08:10:58;;;;;;;6.28;3.70;;;;;;;;;;4988630;28;20501;-65
2021/11/30 08:13:23;;;;;;;8.90;4.25;;;;;;;;;;4988367;28;20036;-66
2021/11/30 08:15:49;;;;;;;8.63;4.35;;;;;;;;;;4988768;28;20143;-65
2021/11/30 08:18:14;;;;;;;8.60;4.07;;;;;;;;;;4988089;28;20316;-65
2021/11/30 08:20:39;;;;;;;6.40;3.28;;;;;;;;;;4991453;28;20454;-66
2021/11/30 08:23:05;;;;;;;6.35;3.95;;;;;;;;;;4992089;28;20071;-65
2021/11/30 08:25:30;;;;;;;10.50;4.32;;;;;;;;;;4992742;28;20454;-65
2021/11/30 08:27:56;;;;;;;5.57;3.83;;;;;;;;;;4991955;28;20324;-65
2021/11/30 08:30:22;;;;;;;8.05;4.82;;;;;;;;;;4992374;28;20367;-66
2021/11/30 08:32:47;;;;;;;9.65;4.40;;;;;;;;;;4992562;28;20358;-65
2021/11/30 08:35:12;;;;;;;13.02;6.65;;;;;;;;;;4992820;28;20427;-65
2021/11/30 08:37:38;;;;;;;6.85;3.70;;;;;;;;;;4991943;28;20029;-65
2021/11/30 08:40:07;;;;;;;9.50;4.70;;;;;;;;;;4991953;28;20343;-66
2021/11/30 08:42:32;;;;;;;9.23;4.47;;;;;;;;;;4992514;28;20375;-66
2021/11/30 08:44:58;;;;;;;11.25;4.75;;;;;;;;;;4991937;28;20352;-65
2021/11/30 08:47:24;;;;;;;9.27;4.25;;;;;;;;;;4991653;28;20025;-65
2021/11/30 08:49:51;;;;;;;9.05;4.15;;;;;;;;;;4991443;28;20605;-65
2021/11/30 08:52:19;;;;;;;7.85;3.70;;;;;;;;;;4991765;28;20432;-66
2021/11/30 08:54:46;;;;;;;7.63;4.32;;;;;;;;;;4993574;28;20443;-68
2021/11/30 08:57:12;;;;;;;12.25;5.68;;;;;;;;;;4992052;28;20144;-65
2021/11/30 08:59:38;;;;;;;12.80;6.28;;;;;;;;;;4991783;28;20064;-65
2021/11/30 09:02:04;;;;;;;11.85;5.07;;;;;;;;;;4991332;28;20032;-65
2021/11/30 09:04:30;;;;;;;8.77;4.20;;;;;;;;;;4991497;28;20057;-66
2021/11/30 09:06:56;;;;;;;12.57;6.30;;;;;;;;;;4991220;28;20435;-65
2021/11/30 09:09:21;;;;;;;8.35;5.07;;;;;;;;;;4991445;28;20428;-66
2021/11/30 09:11:47;;;;;;;11.38;5.50;;;;;;;;;;4991569;28;20432;-66
2021/11/30 09:14:15;;;;;;;9.50;5.05;;;;;;;;;;4974346;28;20444;-65
2021/11/30 09:16:40;;;;;;;10.73;4.93;;;;;;;;;;4991448;28;20344;-65
2021/11/30 09:19:06;;;;;;;9.10;5.45;;;;;;;;;;4973417;28;20052;-66
2021/11/30 09:21:31;;;;;;;10.57;5.10;;;;;;;;;;4991949;28;20451;-66
2021/11/30 09:23:57;;;;;;;14.52;6.70;;;;;;;;;;4990815;28;20523;-65
2021/11/30 09:26:23;;;;;;;10.02;4.93;;;;;;;;;;4992035;28;20444;-65
2021/11/30 09:28:49;;;;;;;10.10;5.22;;;;;;;;;;4993194;28;20436;-65
2021/11/30 09:31:15;;;;;;;10.00;5.25;;;;;;;;;;4989562;28;20420;-66
2021/11/30 09:33:41;;;;;;;9.23;4.90;;;;;;;;;;4973296;28;20436;-66
2021/11/30 09:36:08;;;;;;;9.77;5.18;;;;;;;;;;4973983;28;20434;-66
2021/11/30 09:38:34;;;;;;;9.70;4.40;;;;;;;;;;4991184;28;20036;-65
2021/11/30 09:41:01;;;;;;;10.02;4.30;;;;;;;;;;4990941;28;20581;-66
2021/11/30 09:43:29;;;;;;;9.75;4.63;;;;;;;;;;4991857;28;20419;-66
2021/11/30 09:45:56;;;;;;;9.43;5.25;;;;;;;;;;4990805;28;20337;-65
2021/11/30 09:48:23;;;;;;;8.23;5.15;;;;;;;;;;4969376;28;20476;-66
2021/11/30 09:50:48;;;;;;;15.07;6.50;;;;;;;;;;4953074;28;20530;-66
2021/11/30 09:53:14;;;;;;;14.63;7.22;;;;;;;;;;4971033;28;20419;-66
2021/11/30 09:55:41;;;;;;;19.42;7.78;;;;;;;;;;4953285;28;20507;-67
2021/11/30 09:58:07;;;;;;;14.77;6.43;;;;;;;;;;4970771;28;20460;-66
2021/11/30 10:00:34;;;;;;;12.80;6.43;;;;;;;;;;4971660;28;20325;-66
2021/11/30 10:03:02;;;;;;;20.10;7.63;;;;;;;;;;4971093;28;20508;-68
2021/11/30 10:05:29;;;;;;;16.70;6.85;;;;;;;;;;4952898;28;20409;-67
2021/11/30 10:07:55;;;;;;;18.48;8.23;;;;;;;;;;4970558;28;20030;-66
2021/11/30 10:10:40;;;;;;;18.05;7.53;;;;;;;;;;4970831;28;20458;-66
2021/11/30 10:13:05;;;;;;;21.13;8.57;;;;;;;;;;4969964;28;20413;-67
2021/11/30 10:15:56;;;;;;;15.45;7.13;;;;;;;;;;4970454;28;20337;-66
2021/11/30 10:18:26;;;;;;;14.90;6.85;;;;;;;;;;4952534;28;20443;-68
2021/11/30 10:21:17;;;;;;;17.00;7.55;;;;;;;;;;4970049;28;20452;-68
2021/11/30 10:24:07;;;;;;;14.15;6.65;;;;;;;;;;4970092;28;20344;-66
2021/11/30 10:26:35;;;;;;;15.32;7.35;;;;;;;;;;4970745;28;20581;-66
2021/11/30 10:29:07;;;;;;;14.40;5.88;;;;;;;;;;4971133;28;20133;-66
2021/11/30 10:31:41;;;;;;;10.98;6.03;;;;;;;;;;4970615;28;20400;-66
2021/11/30 10:34:21;;;;;;;13.90;6.38;;;;;;;;;;4969708;28;20444;-67
2021/11/30 10:36:53;;;;;;;18.50;7.10;;;;;;;;;;4970104;28;20428;-66
2021/11/30 10:39:25;;;;;;;9.05;5.18;;;;;;;;;;4969633;28;20448;-67
2021/11/30 10:41:51;;;;;;;10.05;5.63;;;;;;;;;;4970287;28;20452;-66
2021/11/30 10:44:30;;;;;;;11.57;5.45;;;;;;;;;;4971003;28;20518;-66
2021/11/30 10:47:19;;;;;;;14.68;6.30;;;;;;;;;;4971190;28;20386;-67
2021/11/30 10:50:06;;;;;;;10.95;5.97;;;;;;;;;;4983668;28;20468;-66
2021/11/30 10:52:33;;;;;;;11.43;5.90;;;;;;;;;;4989043;28;20332;-67
2021/11/30 10:55:13;;;;;;;12.23;5.05;;;;;;;;;;4989387;28;20435;-66
2021/11/30 10:57:40;;;;;;;11.57;5.05;;;;;;;;;;4988962;28;20309;-66
2021/11/30 11:00:23;;;;;;;11.07;4.95;;;;;;;;;;4989910;28;20419;-66
2021/11/30 11:03:01;;;;;;;11.27;5.13;;;;;;;;;;4972049;28;20378;-67
2021/11/30 11:05:29;;;;;;;10.25;5.43;;;;;;;;;;4989100;28;20443;-67
2021/11/30 11:08:00;;;;;;;10.38;5.38;;;;;;;;;;4990735;28;20406;-67
2021/11/30 11:10:25;;;;;;;11.32;5.18;;;;;;;;;;4989068;28;20335;-67
2021/11/30 11:12:51;;;;;;;11.77;5.50;;;;;;;;;;4971457;28;20029;-68
2021/11/30 11:15:35;;;;;;;10.98;4.90;;;;;;;;;;4988664;28;20463;-75
2021/11/30 11:18:20;;;;;;;8.45;3.78;;;;;;;;;;4989503;28;20382;-67
2021/11/30 11:20:47;;;;;;;10.73;4.82;;;;;;;;;;4989019;28;20435;-68
2021/11/30 11:23:20;;;;;;;7.50;3.92;;;;;;;;;;4988829;28;20360;-68
2021/11/30 11:25:45;;;;;;;8.20;4.18;;;;;;;;;;4989533;28;20029;-68
2021/11/30 11:28:12;;;;;;;10.57;4.20;;;;;;;;;;4989134;28;20459;-68
2021/11/30 11:30:39;;;;;;;9.32;4.75;;;;;;;;;;4971023;28;20452;-68
2021/11/30 11:33:04;;;;;;;7.90;4.30;;;;;;;;;;4971175;28;20493;-67
2021/11/30 11:35:30;;;;;;;9.32;4.40;;;;;;;;;;4970916;28;20585;-68
2021/11/30 11:37:59;;;;;;;8.25;5.35;;;;;;;;;;4971346;28;20364;-67
2021/11/30 11:40:25;;;;;;;11.27;4.15;;;;;;;;;;4988753;28;20378;-68
2021/11/30 11:42:54;;;;;;;8.98;4.40;;;;;;;;;;4971240;28;20558;-68
2021/11/30 11:45:19;;;;;;;9.57;4.50;;;;;;;;;;4988763;28;20359;-68
2021/11/30 11:47:45;;;;;;;7.00;4.40;;;;;;;;;;4988987;28;20016;-69
2021/11/30 11:50:12;;;;;;;6.75;3.95;;;;;;;;;;4952617;28;20392;-67
2021/11/30 11:52:39;;;;;;;8.45;3.88;;;;;;;;;;4951615;28;20480;-68
2021/11/30 11:55:19;;;;;;;11.65;4.65;;;;;;;;;;4971236;28;20057;-68
2021/11/30 11:58:01;;;;;;;9.00;3.90;;;;;;;;;;4972822;28;20464;-68
2021/11/30 12:00:32;;;;;;;8.25;4.20;;;;;;;;;;4955776;28;20389;-68
2021/11/30 12:03:00;;;;;;;7.45;4.28;;;;;;;;;;4956054;28;20347;-67
2021/11/30 12:05:56;;;;;;;5.45;3.85;;;;;;;;;;4955407;28;20351;-68
2021/11/30 12:08:28;;;;;;;12.25;3.88;;;;;;;;;;4961792;28;20388;-67
2021/11/30 12:10:54;;;;;;;8.65;3.65;;;;;;;;;;4972424;28;20456;-68
2021/11/30 12:13:23;;;;;;;5.53;3.28;;;;;;;;;;4954989;28;20425;-68
2021/11/30 12:16:10;;;;;;;7.90;4.03;;;;;;;;;;4972288;28;20336;-69
2021/11/30 12:18:47;;;;;;;8.38;4.13;;;;;;;;;;4973478;28;20029;-67
2021/11/30 12:21:14;;;;;;;7.57;4.18;;;;;;;;;;4972524;28;20428;-68
2021/11/30 12:23:40;;;;;;;7.47;3.80;;;;;;;;;;4972525;28;20433;-67
2021/11/30 12:26:41;;;;;;;7.75;4.20;;;;;;;;;;4972183;28;20372;-68
2021/11/30 12:29:19;;;;;;;7.32;3.92;;;;;;;;;;4972689;28;20479;-67
2021/11/30 12:31:44;;;;;;;8.43;3.95;;;;;;;;;;4972441;28;20482;-68
2021/11/30 12:34:10;;;;;;;9.15;4.85;;;;;;;;;;4954601;28;20440;-68
2021/11/30 12:36:38;;;;;;;8.00;4.40;;;;;;;;;;4974061;28;20484;-68
2021/11/30 12:39:06;;;;;;;6.40;4.05;;;;;;;;;;4972132;28;20382;-68
2021/11/30 12:41:38;;;;;;;6.72;4.22;;;;;;;;;;4972017;28;20440;-68
2021/11/30 12:44:15;;;;;;;5.32;3.40;;;;;;;;;;4972399;28;20431;-67
2021/11/30 12:46:42;;;;;;;8.13;3.78;;;;;;;;;;4971914;28;20428;-68
2021/11/30 12:49:22;;;;;;;7.85;4.10;;;;;;;;;;4980901;28;20463;-69
2021/11/30 12:51:49;;;;;;;6.18;3.70;;;;;;;;;;4991510;28;20432;-67
2021/11/30 12:54:23;;;;;;;6.63;3.90;;;;;;;;;;4991048;28;20443;-68
2021/11/30 12:56:53;;;;;;;6.78;3.97;;;;;;;;;;4992155;28;20340;-67
2021/11/30 12:59:52;;;;;;;6.00;3.78;;;;;;;;;;4991279;28;20378;-68
2021/11/30 13:02:36;;;;;;;9.05;4.38;;;;;;;;;;4957787;28;20525;-67
2021/11/30 13:05:07;;;;;;;5.88;3.65;;;;;;;;;;4991005;28;20028;-68
2021/11/30 13:07:34;;;;;;;8.70;5.10;;;;;;;;;;4992237;28;20417;-68
2021/11/30 13:13:34;;;;;;;7.05;3.92;;;;;;;;;;4990860;28;20466;-68
2021/11/30 13:16:01;;;;;;;9.68;4.85;;;;;;;;;;4991176;28;20051;-68
2021/11/30 13:18:30;;;;;;;7.68;4.45;;;;;;;;;;4990719;28;20044;-68
2021/11/30 13:20:56;;;;;;;8.05;4.63;;;;;;;;;;4990928;28;20343;-68
2021/11/30 13:23:25;;;;;;;8.38;4.40;;;;;;;;;;4990748;28;20033;-69
2021/11/30 13:25:51;;;;;;;;;;;;;;;;;;4991656;28;20501;-68
2021/11/30 13:28:26;;;;;;;9.38;5.20;;;;;;;;;;4989345;28;20426;-68
2021/11/30 13:30:55;;;;;;;7.97;4.57;;;;;;;;;;4991114;28;20427;-68
2021/11/30 13:33:23;;;;;;;8.15;4.22;;;;;;;;;;4990725;28;20466;-68
2021/11/30 13:35:51;;;;;;;8.05;4.57;;;;;;;;;;4972979;28;20432;-69
2021/11/30 13:38:38;;;;;;;11.32;5.00;;;;;;;;;;4991004;28;20452;-68
2021/11/30 13:41:06;;;;;;;8.10;4.88;;;;;;;;;;4992163;28;20518;-68
2021/11/30 13:43:43;;;;;;;9.88;4.45;;;;;;;;;;4972906;28;20098;-68
2021/11/30 13:46:29;;;;;;;8.13;4.43;;;;;;;;;;4990328;28;20154;-68
2021/11/30 13:49:01;;;;;;;7.38;3.88;;;;;;;;;;4990417;28;20067;-68
2021/11/30 13:51:35;;;;;;;8.55;4.60;;;;;;;;;;4990250;28;20021;-68
2021/11/30 13:54:04;;;;;;;7.60;3.92;;;;;;;;;;4972615;28;20505;-68
2021/11/30 13:56:57;;;;;;;9.88;4.18;;;;;;;;;;4991566;28;20415;-69
2021/11/30 13:59:38;;;;;;;8.30;4.47;;;;;;;;;;4990025;28;20348;-68
2021/11/30 14:02:04;;;;;;;8.68;4.22;;;;;;;;;;4990591;28;20439;-68
2021/11/30 14:04:29;;;;;;;11.68;5.18;;;;;;;;;;4990483;28;20344;-68
2021/11/30 14:06:58;;;;;;;13.32;6.22;;;;;;;;;;4990143;28;20485;-68
2021/11/30 14:09:28;;;;;;;9.57;5.85;;;;;;;;;;4989681;28;20340;-68
2021/11/30 14:11:57;;;;;;;10.60;5.72;;;;;;;;;;4990457;28;20454;-68
2021/11/30 14:14:23;;;;;;;;;;;;;;;;;;4972467;28;20111;-69
2021/11/30 14:16:55;;;;;;;17.75;5.90;;;;;;;;;;4987864;28;19912;-68
2021/11/30 14:19:32;;;;;;;12.68;4.80;;;;;;;;;;4989971;28;20095;-68
2021/11/30 14:22:06;;;;;;;11.77;4.68;;;;;;;;;;4973283;28;20511;-69
2021/11/30 14:24:32;;;;;;;9.40;4.25;;;;;;;;;;4989825;28;20443;-68
2021/11/30 14:27:12;;;;;;;8.50;4.53;;;;;;;;;;4989823;28;20475;-69
2021/11/30 14:29:39;;;;;;;9.13;4.88;;;;;;;;;;4990041;28;20365;-68
2021/11/30 14:32:14;;;;;;;10.15;3.75;;;;;;;;;;4972014;28;20083;-68
2021/11/30 14:34:45;;;;;;;10.05;4.47;;;;;;;;;;4973058;28;20332;-68
2021/11/30 14:37:30;;;;;;;7.68;4.03;;;;;;;;;;4990493;28;20053;-68
2021/11/30 14:40:14;;;;;;;8.88;4.40;;;;;;;;;;4990255;28;20398;-68
2021/11/30 14:42:48;;;;;;;9.48;3.88;;;;;;;;;;4989693;28;20041;-68
2021/11/30 14:45:21;;;;;;;8.75;3.67;;;;;;;;;;4990373;28;20509;-68
2021/11/30 14:47:48;;;;;;;11.65;3.50;;;;;;;;;;4971607;28;20501;-68
2021/11/30 14:50:21;;;;;;;8.35;4.07;;;;;;;;;;4990013;28;20427;-68
2021/11/30 14:52:49;;;;;;;6.28;3.70;;;;;;;;;;4971349;28;20315;-68
2021/11/30 14:55:16;;;;;;;5.68;3.22;;;;;;;;;;4989355;28;20440;-68
2021/11/30 14:57:41;;;;;;;9.05;3.88;;;;;;;;;;4987729;28;20340;-68
2021/11/30 15:00:30;;;;;;;8.10;4.15;;;;;;;;;;4989266;28;20364;-68
2021/11/30 15:03:15;;;;;;;8.25;4.10;;;;;;;;;;4971404;28;20453;-67
2021/11/30 15:05:46;;;;;;;6.78;3.72;;;;;;;;;;4989108;28;20402;-68
2021/11/30 15:08:31;;;;;;;7.57;4.18;;;;;;;;;;4971386;28;20483;-67